Terminal Aerodrome Forecast
Issued by NWS

Home | Current Version | Previous Version | Graphics & Text | Print | Product List | Glossary On
Versions: 1 2 3 4 5 6 7 8 9 10 11 12 13 14 15 16
134
FTUS43 KBIS 181140
TAFMOT
TAF
KMOT 181140Z 1812/1912 31005KT P6SM FEW110 FEW200
     FM190100 01005KT P6SM FEW110 SCT200
     FM190400 08004KT P6SM FEW100 SCT250
     FM190700 14005KT P6SM FEW100 SCT250=

USA.gov is the U.S. government's official web portal to all federal, state and local government web resources and services.